Αναφορές METAR από Ελληνικά Αεροδρόμια

Σε αυτή τη σελίδα, μπορείτε να παρακολουθείτε τις αναφορές METAR που προέρχονται από τα κυριότερα αεροδρόμια της Ελλάδας. Το περιεχόμενο αποκωδικοποιείται, οπτικοποιείται και γίνεται κατανοητό από τον καθένα με τη χρήση του όμορφου δίγλωσσου γραφικού περιβάλλοντος του meteothes.gr!

Η αρχική κωδικοποιημένη αναφορά, συμπεριλαμβάνεται επίσης στο κάτω μέρος. Σε όποια καθεστερεί η ενημέρωση, το προειδοποιητικό μήνυμα "Μη ενημερωμένο METAR!" εμφανίζεται στο πάνω μέρος της με κόκκινα γράμματα.

Εχουν προστεθεί επίσης δύο αεροδρόμια από γειτονικές χώρες, την Οχρίδα(ΠΓΔΜ) και την Σόφια(Βουλγαρία) για να ελέγχουμε την εξέλιξη των ψυχρών εισβολών από τα Βόρεια!

LGTS - Thessaloniki/Makedonia-Elev 7m
Απόσταση από meteothes.gr: Ν 13km
Ενημερώθηκε: 13/11/2018 03:20
Αίθριος
Αίθριος
 Ανεμος από ΑΝΑ
Ανεμος: ΑΝΑ 11 km/h
Θερμοκρασία: 8°C
Αίσθηση Ψύχρας: 6°C
Σημ. Δρόσου: 4°C
Υγρασία: 76%
Βαρόμετρο: 1029 hPa
Συνθήκες: Αίθριος
Ορατότητα: πάνω από 10 km
2018/11/13 01:20 LGTS 130120Z 11006KT CAVOK 08/04 Q1029 NOSIG
LGAV - Athens/Elef. Venizelos-Elev 94m
Απόσταση από meteothes.gr: ΝΝΑ 312km
Ενημερώθηκε: 13/11/2018 03:20
Διάσπαρτα Nέφη
Διάσπαρτα Nέφη
 Ανεμος από Β
Ανεμος: Β 7 km/h
Θερμοκρασία: 15°C
Σημ. Δρόσου: 8°C
Υγρασία: 63%
Βαρόμετρο: 1026 hPa
Νέφωση: Διάσπαρτα Nέφη
Ορατότητα: 10 km
Λεπτομέρειες Νεφών: Διάσπαρτα Nέφη 914 m
2018/11/13 01:20 LGAV 130120Z 35004KT 290V100 9999 FEW030 15/08 Q1026 NOSIG
 
LGAL - Alexandroupolis-Elev 3m
Απόσταση από meteothes.gr: Α 251km
Ενημερώθηκε: 12/11/2018 21:20
ΜΗ Ενημερωμένο METAR!
Διάσπαρτα Nέφη
Διάσπαρτα Nέφη
 Ανεμος από ΒΒΑ
Ανεμος: ΒΒΑ 11 km/h
Θερμοκρασία: 12°C
Σημ. Δρόσου: 7°C
Υγρασία: 72%
Βαρόμετρο: 1029 hPa
Νέφωση: Διάσπαρτα Nέφη
Ορατότητα: 10 km
Λεπτομέρειες Νεφών: Διάσπαρτα Nέφη 762 m
2018/11/12 19:20 LGAL 121920Z 02006KT 9999 FEW025 12/07 Q1029
LGKV - Kavala/Crysoupolis-Elev 5m
Απόσταση από meteothes.gr: ΑΒΑ 144km
Ενημερώθηκε: 13/11/2018 02:50
Διάσπαρτα Nέφη
Διάσπαρτα Nέφη
 Ανεμος από ΒΑ
Ανεμος: ΒΑ 6 km/h
Θερμοκρασία: 8°C
Σημ. Δρόσου: 6°C
Υγρασία: 87%
Βαρόμετρο: 1029 hPa
Νέφωση: Διάσπαρτα Nέφη
Ορατότητα: 10 km
Λεπτομέρειες Νεφών: Διάσπαρτα Nέφη 1219 m
2018/11/13 00:50 LGKV 130050Z 05003KT 9999 FEW040 08/06 Q1029
 
LGSK - Skiathos Island-Elev 15m
Απόσταση από meteothes.gr: ΝΝΑ 168km
Ενημερώθηκε: 12/11/2018 13:50
ΜΗ Ενημερωμένο METAR!
κυρίως νεφελώδης
κυρίως νεφελώδης
 Ανεμος από Β
Ανεμος: Β 11 km/h
Θερμοκρασία: 17°C
Σημ. Δρόσου: 11°C
Υγρασία: 68%
Βαρόμετρο: 1026 hPa
Νέφωση: κυρίως νεφελώδης
Ορατότητα: 10 km
Λεπτομέρειες Νεφών: Διάσπαρτα Nέφη 610 m
κυρίως νεφελώδης 762 m
2018/11/12 11:50 LGSK 121150Z 01006KT 9999 FEW020 BKN025 17/11 Q1026
LGLM - Limnos Island-Elev 5m
Απόσταση από meteothes.gr: ΑΝΑ 210km
Ενημερώθηκε: 13/11/2018 03:20

 Ανεμος από ΒΑ
Ανεμος: ΒΑ 22 km/h
Θερμοκρασία: 14°C
Σημ. Δρόσου: 10°C
Υγρασία: 77%
Βαρόμετρο: 1028 hPa
2018/11/13 01:20 LGLM 130120Z AUTO 04012KT //// // ////// 14/10 Q1028 RE//
 
LGMT - Mitilini Island-Elev 17m
Απόσταση από meteothes.gr: ΑΝΑ 358km
Ενημερώθηκε: 12/11/2018 21:50
ΜΗ Ενημερωμένο METAR!
Αίθριος
Αίθριος
 Ανεμος από ΒΒΑ
Ανεμος: ΒΒΑ 15 km/h
Θερμοκρασία: 17°C
Σημ. Δρόσου: 11°C
Υγρασία: 68%
Βαρόμετρο: 1025 hPa
Συνθήκες: Αίθριος
Ορατότητα: πάνω από 10 km
2018/11/12 19:50 LGMT 121950Z 03008KT 310V120 CAVOK 17/11 Q1025
LGSY - Skiros Island-Elev 15m
Απόσταση από meteothes.gr: ΝΑ 227km
Ενημερώθηκε: 13/11/2018 01:50
ΜΗ Ενημερωμένο METAR!
Διάσπαρτα Nέφη
Διάσπαρτα Nέφη
 Ανεμος από ΒΒΑ
Ανεμος: ΒΒΑ 37 km/h
Θερμοκρασία: 16°C
Σημ. Δρόσου: 12°C
Υγρασία: 77%
Βαρόμετρο: 1027 hPa
Νέφωση: Διάσπαρτα Nέφη
Ορατότητα: 10 km
Λεπτομέρειες Νεφών: Διάσπαρτα Nέφη 610 m
2018/11/12 23:50 LGSY 122350Z 02020KT 9999 FEW020 16/12 Q1027 BLU
 
LGKZ - Kozani-Elev 628m
Απόσταση από meteothes.gr: ΔΝΔ 102km
Ενημερώθηκε: 12/11/2018 19:50
ΜΗ Ενημερωμένο METAR!
Αίθριος
Αίθριος
 Ανεμος από άπνοια
Ανεμος: άπνοια
Θερμοκρασία: 9°C
Σημ. Δρόσου: 0°C
Υγρασία: 54%
Βαρόμετρο: 1028 hPa
Συνθήκες: Αίθριος
Ορατότητα: πάνω από 10 km
2018/11/12 17:50 LGKZ 121750Z 00000KT CAVOK 09/00 Q1028
LGIO - Ioannina-Elev 476m
Απόσταση από meteothes.gr: ΔΝΔ 209km
Ενημερώθηκε: 12/11/2018 19:50
ΜΗ Ενημερωμένο METAR!
Αίθριος
Αίθριος
 Ανεμος από μεταβλητός
Ανεμος: μεταβλητός 0 km/h
Θερμοκρασία: 9°C
Σημ. Δρόσου: 6°C
Υγρασία: 82%
Βαρόμετρο: 1026 hPa
Συνθήκες: Αίθριος
Ορατότητα: πάνω από 10 km
2018/11/12 17:50 LGIO 121750Z /////KT CAVOK 09/06 Q1026
 
LGZA - Zakinthos-Elev 3m
Απόσταση από meteothes.gr: ΝΝΔ 367km
Ενημερώθηκε: 12/11/2018 19:50
ΜΗ Ενημερωμένο METAR!
Διάσπαρτα Nέφη
Διάσπαρτα Nέφη
 Ανεμος από άπνοια
Ανεμος: άπνοια
Θερμοκρασία: 14°C
Σημ. Δρόσου: 12°C
Υγρασία: 88%
Βαρόμετρο: 1025 hPa
Νέφωση: Διάσπαρτα Nέφη
Ορατότητα: 10 km
Λεπτομέρειες Νεφών: Διάσπαρτα Nέφη 610 m
2018/11/12 17:50 LGZA 121750Z 00000KT 9999 FEW020 14/12 Q1025
LGKR - Corfu Island-Elev 2m
Απόσταση από meteothes.gr: ΔΝΔ 282km
Ενημερώθηκε: 13/11/2018 03:20
Αίθριος
Αίθριος
 Ανεμος από άπνοια
Ανεμος: άπνοια
Θερμοκρασία: 12°C
Σημ. Δρόσου: 11°C
Υγρασία: 94%
Βαρόμετρο: 1025 hPa
Συνθήκες: Αίθριος
Ορατότητα: πάνω από 10 km
2018/11/13 01:20 LGKR 130120Z 00000KT CAVOK 12/11 Q1025 NOSIG
 
LGSO - Syros Island-Elev 72m
Απόσταση από meteothes.gr: ΝΝΑ 397km
Ενημερώθηκε: 13/11/2018 03:20

 Ανεμος από Β
Ανεμος: Β 43 km/h
Θερμοκρασία: 16°C
Σημ. Δρόσου: 10°C
Υγρασία: 68%
Βαρόμετρο: 1023 hPa
2018/11/13 01:20 LGSO 130120Z AUTO 36023KT //// // ////// 16/10 Q1023 RE//
LGMK - Mikonos Island-Elev 123m
Απόσταση από meteothes.gr: ΝΝΑ 412km
Ενημερώθηκε: 12/11/2018 19:50
ΜΗ Ενημερωμένο METAR!
Μερικώς νεφελώδης
Μερικώς νεφελώδης
 Ανεμος από ΒΒΔ
Ανεμος: ΒΒΔ 31 km/h
Θερμοκρασία: 16°C
Σημ. Δρόσου: 13°C
Υγρασία: 83%
Βαρόμετρο: 1023 hPa
Νέφωση: Μερικώς νεφελώδης
Ορατότητα: 10 km
Λεπτομέρειες Νεφών: Μερικώς νεφελώδης 488 m
2018/11/12 17:50 LGMK 121750Z 34017KT 9999 SCT016 16/13 Q1023
 
LGSR - Santorini Island-Elev 40m
Απόσταση από meteothes.gr: ΝΝΑ 520km
Ενημερώθηκε: 13/11/2018 03:20
Ασθενής βροχή
Ασθενής βροχή
 Ανεμος από Β
Ανεμος: Β 30 km/h
Θερμοκρασία: 16°C
Σημ. Δρόσου: 11°C
Υγρασία: 72%
Βαρόμετρο: 1022 hPa
Συνθήκες: Ασθενής βροχή
2018/11/13 01:20 LGSR 130120Z AUTO 36016KT //// -RA ////// 16/11 Q1022 RE//
LGKL - Kalamata-Elev 8m
Απόσταση από meteothes.gr: Ν 405km
Ενημερώθηκε: 13/11/2018 03:20

 Ανεμος από ΒΒΔ
Ανεμος: ΒΒΔ 11 km/h
Θερμοκρασία: 13°C
Σημ. Δρόσου: 6°C
Υγρασία: 63%
Βαρόμετρο: 1025 hPa
2018/11/13 01:20 LGKL 130120Z AUTO 34006KT //// // ////// 13/06 Q1025 RE//
 
LGIR - Iraklion/Crete-Elev 5m
Απόσταση από meteothes.gr: ΝΝΑ 622km
Ενημερώθηκε: 13/11/2018 03:20
Μερικώς νεφελώδης
Μερικώς νεφελώδης
 Ανεμος από ΒΔ
Ανεμος: ΒΔ 28 km/h
Θερμοκρασία: 18°C
Σημ. Δρόσου: 15°C
Υγρασία: 83%
Βαρόμετρο: 1022 hPa
Νέφωση: Μερικώς νεφελώδης
Ορατότητα: 10 km
Λεπτομέρειες Νεφών: Διάσπαρτα Nέφη 549 m
Μερικώς νεφελώδης 762 m
2018/11/13 01:20 LGIR 130120Z 32015KT 9999 FEW018 SCT025 18/15 Q1022 NOSIG
LGRP - Rhodes-Elev 5m
Απόσταση από meteothes.gr: ΝΑ 649km
Ενημερώθηκε: 13/11/2018 03:20
Διάσπαρτα Nέφη
Διάσπαρτα Nέφη
 Ανεμος από ΔΝΔ
Ανεμος: ΔΝΔ 7 km/h
Θερμοκρασία: 17°C
Σημ. Δρόσου: 12°C
Υγρασία: 73%
Βαρόμετρο: 1017 hPa
Νέφωση: Διάσπαρτα Nέφη
Ορατότητα: 10 km
Λεπτομέρειες Νεφών: Διάσπαρτα Nέφη 549 m
2018/11/13 01:20 LGRP 130120Z 25004KT 9999 FEW018 17/12 Q1017 NOSIG
 
LWOH - Ohrid/FYROM-Elev 761m
Απόσταση από meteothes.gr: ΔΒΔ 188km
Ενημερώθηκε: 12/11/2018 22:00
ΜΗ Ενημερωμένο METAR!
Διάσπαρτα Nέφη
Διάσπαρτα Nέφη
 Ανεμος από Β
Ανεμος: Β 7 km/h
Θερμοκρασία: 2°C
Αίσθηση Ψύχρας: 0°C
Σημ. Δρόσου: -1°C
Υγρασία: 81%
Βαρόμετρο: 1028 hPa
Νέφωση: Διάσπαρτα Nέφη
Ορατότητα: 10 km
Λεπτομέρειες Νεφών: Διάσπαρτα Nέφη 1219 m
2018/11/12 20:00 LWOH 122000Z 35004KT 300V030 9999 FEW040 02/M01 Q1028
LBSF - Sofia/Bulgaria-Elev 595m
Απόσταση από meteothes.gr: Β 227km
Ενημερώθηκε: 13/11/2018 03:30
Αχλύς, Μερικώς νεφελώδης
Αχλύς, Μερικώς νεφελώδης
 Ανεμος από άπνοια
Ανεμος: άπνοια
Θερμοκρασία: 1°C
Σημ. Δρόσου: -1°C
Υγρασία: 87%
Βαρόμετρο: 1030 hPa
Συνθήκες: Αχλύς
Νέφωση: Μερικώς νεφελώδης
Ορατότητα: 2 km
2018/11/13 01:30 LBSF 130130Z 00000KT 2300 BR NSC 01/M01 Q1030 BECMG 3000 BR

(*) Μερικές αναφορές παρουσιάζουν λιγότερα στοιχεία γιατί οι αρχικές είναι ελλιπείς ή έχουν λάθος μορφοποίηση!